sensor_id;sensor_type;location;lat;lon;timestamp;temperature;humidity
63966;DHT22;50151;52.030;5.350;2022-12-29T08:08:34;9.20;99.90
63966;DHT22;50151;52.030;5.350;2022-12-29T08:11:01;9.30;99.90
63966;DHT22;50151;52.030;5.350;2022-12-29T08:13:28;9.30;99.90
63966;DHT22;50151;52.030;5.350;2022-12-29T08:15:54;9.30;99.90
63966;DHT22;50151;52.030;5.350;2022-12-29T08:18:21;9.40;99.90
63966;DHT22;50151;52.030;5.350;2022-12-29T08:20:49;9.40;99.90
63966;DHT22;50151;52.030;5.350;2022-12-29T08:23:21;9.50;99.90
63966;DHT22;50151;52.030;5.350;2022-12-29T08:25:57;9.50;99.90
63966;DHT22;50151;52.030;5.350;2022-12-29T08:28:24;9.60;99.90
63966;DHT22;50151;52.030;5.350;2022-12-29T08:30:51;9.60;99.90
63966;DHT22;50151;52.030;5.350;2022-12-29T08:33:18;9.60;99.90
63966;DHT22;50151;52.030;5.350;2022-12-29T08:35:45;9.60;99.90
63966;DHT22;50151;52.030;5.350;2022-12-29T08:38:11;9.60;99.90
63966;DHT22;50151;52.030;5.350;2022-12-29T08:40:38;9.60;99.90
63966;DHT22;50151;52.030;5.350;2022-12-29T08:43:05;9.50;99.90
63966;DHT22;50151;52.030;5.350;2022-12-29T08:45:34;9.60;99.90
63966;DHT22;50151;52.030;5.350;2022-12-29T08:48:00;9.60;99.90
63966;DHT22;50151;52.030;5.350;2022-12-29T08:50:27;9.60;99.90
63966;DHT22;50151;52.030;5.350;2022-12-29T08:52:54;9.60;99.90
63966;DHT22;50151;52.030;5.350;2022-12-29T08:55:20;9.50;99.90
63966;DHT22;50151;52.030;5.350;2022-12-29T08:57:47;9.60;99.90
63966;DHT22;50151;52.030;5.350;2022-12-29T09:00:14;9.50;99.90
63966;DHT22;50151;52.030;5.350;2022-12-29T09:02:41;9.60;99.90
63966;DHT22;50151;52.030;5.350;2022-12-29T09:05:08;9.50;99.90
63966;DHT22;50151;52.030;5.350;2022-12-29T09:07:36;9.60;99.90
63966;DHT22;50151;52.030;5.350;2022-12-29T09:10:03;9.60;99.90
63966;DHT22;50151;52.030;5.350;2022-12-29T09:12:30;9.60;99.90
63966;DHT22;50151;52.030;5.350;2022-12-29T09:15:02;9.50;99.90
63966;DHT22;50151;52.030;5.350;2022-12-29T09:17:28;9.50;99.90
63966;DHT22;50151;52.030;5.350;2022-12-29T09:20:08;9.50;99.90
63966;DHT22;50151;52.030;5.350;2022-12-29T09:22:36;9.50;99.90
63966;DHT22;50151;52.030;5.350;2022-12-29T09:25:03;9.60;99.90
63966;DHT22;50151;52.030;5.350;2022-12-29T09:27:30;9.60;99.90
63966;DHT22;50151;52.030;5.350;2022-12-29T09:29:57;9.60;99.90
63966;DHT22;50151;52.030;5.350;2022-12-29T09:32:23;9.60;99.90
63966;DHT22;50151;52.030;5.350;2022-12-29T09:34:56;9.50;99.90
63966;DHT22;50151;52.030;5.350;2022-12-29T09:37:23;9.50;99.90
63966;DHT22;50151;52.030;5.350;2022-12-29T09:39:50;9.50;99.90
63966;DHT22;50151;52.030;5.350;2022-12-29T09:42:27;9.40;99.90
63966;DHT22;50151;52.030;5.350;2022-12-29T09:45:08;9.40;99.90
63966;DHT22;50151;52.030;5.350;2022-12-29T09:47:36;9.30;99.90
63966;DHT22;50151;52.030;5.350;2022-12-29T09:50:30;9.30;99.90
63966;DHT22;50151;52.030;5.350;2022-12-29T09:53:07;9.20;99.90
63966;DHT22;50151;52.030;5.350;2022-12-29T09:55:45;9.20;99.90
63966;DHT22;50151;52.030;5.350;2022-12-29T09:58:26;9.30;99.90
63966;DHT22;50151;52.030;5.350;2022-12-29T10:01:03;9.20;99.90
63966;DHT22;50151;52.030;5.350;2022-12-29T10:03:48;9.20;99.90
63966;DHT22;50151;52.030;5.350;2022-12-29T10:06:21;9.20;99.90
63966;DHT22;50151;52.030;5.350;2022-12-29T10:12:16;9.30;99.90
63966;DHT22;50151;52.030;5.350;2022-12-29T10:17:48;9.30;99.90
63966;DHT22;50151;52.030;5.350;2022-12-29T10:23:19;9.20;99.90
63966;DHT22;50151;52.030;5.350;2022-12-29T10:25:48;9.20;99.90
63966;DHT22;50151;52.030;5.350;2022-12-29T10:28:21;9.20;99.90
63966;DHT22;50151;52.030;5.350;2022-12-29T10:30:50;9.20;99.90
63966;DHT22;50151;52.030;5.350;2022-12-29T10:33:22;9.20;99.90
63966;DHT22;50151;52.030;5.350;2022-12-29T10:35:50;9.20;99.90
63966;DHT22;50151;52.030;5.350;2022-12-29T10:38:40;9.20;99.90
63966;DHT22;50151;52.030;5.350;2022-12-29T10:41:21;9.20;99.90
63966;DHT22;50151;52.030;5.350;2022-12-29T10:43:53;9.20;99.90
63966;DHT22;50151;52.030;5.350;2022-12-29T10:46:28;9.20;99.90
63966;DHT22;50151;52.030;5.350;2022-12-29T10:48:56;9.20;99.90
63966;DHT22;50151;52.030;5.350;2022-12-29T10:51:26;9.20;99.90
63966;DHT22;50151;52.030;5.350;2022-12-29T10:54:09;9.20;99.90
63966;DHT22;50151;52.030;5.350;2022-12-29T10:56:43;9.30;99.90
63966;DHT22;50151;52.030;5.350;2022-12-29T10:59:19;9.30;99.90
63966;DHT22;50151;52.030;5.350;2022-12-29T11:04:42;9.40;99.90
63966;DHT22;50151;52.030;5.350;2022-12-29T11:07:11;9.40;99.90
63966;DHT22;50151;52.030;5.350;2022-12-29T11:09:43;9.40;99.90
63966;DHT22;50151;52.030;5.350;2022-12-29T11:12:22;9.50;99.90
63966;DHT22;50151;52.030;5.350;2022-12-29T11:15:13;9.50;99.90
63966;DHT22;50151;52.030;5.350;2022-12-29T11:17:44;9.60;99.90
63966;DHT22;50151;52.030;5.350;2022-12-29T11:20:37;9.50;99.90
63966;DHT22;50151;52.030;5.350;2022-12-29T11:23:25;9.50;99.90
63966;DHT22;50151;52.030;5.350;2022-12-29T11:26:14;9.40;99.90
63966;DHT22;50151;52.030;5.350;2022-12-29T11:28:45;9.40;99.90
63966;DHT22;50151;52.030;5.350;2022-12-29T11:31:16;9.40;99.90
63966;DHT22;50151;52.030;5.350;2022-12-29T11:33:43;9.30;99.90
63966;DHT22;50151;52.030;5.350;2022-12-29T11:36:16;9.30;99.90
63966;DHT22;50151;52.030;5.350;2022-12-29T11:38:48;9.30;99.90
63966;DHT22;50151;52.030;5.350;2022-12-29T11:41:24;9.30;99.90
63966;DHT22;50151;52.030;5.350;2022-12-29T11:43:53;9.20;99.90
63966;DHT22;50151;52.030;5.350;2022-12-29T11:46:25;9.20;99.90
63966;DHT22;50151;52.030;5.350;2022-12-29T11:48:53;9.10;99.90
63966;DHT22;50151;52.030;5.350;2022-12-29T11:51:28;9.10;99.90
63966;DHT22;50151;52.030;5.350;2022-12-29T11:54:00;9.00;99.90
63966;DHT22;50151;52.030;5.350;2022-12-29T11:56:38;9.10;99.90
63966;DHT22;50151;52.030;5.350;2022-12-29T12:02:11;9.30;99.90
63966;DHT22;50151;52.030;5.350;2022-12-29T12:04:39;9.30;99.90
63966;DHT22;50151;52.030;5.350;2022-12-29T12:12:39;10.00;99.90
63966;DHT22;50151;52.030;5.350;2022-12-29T12:15:13;9.90;99.90
63966;DHT22;50151;52.030;5.350;2022-12-29T12:17:46;9.80;99.90
63966;DHT22;50151;52.030;5.350;2022-12-29T12:20:26;9.80;99.90
63966;DHT22;50151;52.030;5.350;2022-12-29T12:23:22;9.90;99.90
63966;DHT22;50151;52.030;5.350;2022-12-29T12:25:59;9.90;99.90
63966;DHT22;50151;52.030;5.350;2022-12-29T12:33:53;10.00;99.90
63966;DHT22;50151;52.030;5.350;2022-12-29T12:39:44;9.90;99.90
63966;DHT22;50151;52.030;5.350;2022-12-29T12:42:36;9.90;99.90
63966;DHT22;50151;52.030;5.350;2022-12-29T12:56:37;10.00;99.90
63966;DHT22;50151;52.030;5.350;2022-12-29T12:59:34;10.00;99.90
63966;DHT22;50151;52.030;5.350;2022-12-29T13:02:08;10.00;99.90
63966;DHT22;50151;52.030;5.350;2022-12-29T13:07:37;10.00;99.90
63966;DHT22;50151;52.030;5.350;2022-12-29T13:10:17;9.90;99.90
63966;DHT22;50151;52.030;5.350;2022-12-29T13:18:46;9.90;99.90
63966;DHT22;50151;52.030;5.350;2022-12-29T13:21:33;10.00;99.90
63966;DHT22;50151;52.030;5.350;2022-12-29T13:24:32;9.90;99.90
63966;DHT22;50151;52.030;5.350;2022-12-29T13:30:05;9.80;99.90
63966;DHT22;50151;52.030;5.350;2022-12-29T13:32:43;9.90;99.90
63966;DHT22;50151;52.030;5.350;2022-12-29T13:38:19;9.90;99.90
63966;DHT22;50151;52.030;5.350;2022-12-29T13:40:52;9.80;99.90
63966;DHT22;50151;52.030;5.350;2022-12-29T13:43:22;9.90;99.90
63966;DHT22;50151;52.030;5.350;2022-12-29T13:45:58;9.90;99.90
63966;DHT22;50151;52.030;5.350;2022-12-29T13:48:51;9.90;99.90
63966;DHT22;50151;52.030;5.350;2022-12-29T13:51:21;9.90;99.90
63966;DHT22;50151;52.030;5.350;2022-12-29T13:54:13;9.80;99.90
63966;DHT22;50151;52.030;5.350;2022-12-29T13:59:59;9.80;99.90
63966;DHT22;50151;52.030;5.350;2022-12-29T14:02:37;9.80;99.90
63966;DHT22;50151;52.030;5.350;2022-12-29T14:07:56;9.70;99.90
63966;DHT22;50151;52.030;5.350;2022-12-29T14:13:05;9.60;99.90
63966;DHT22;50151;52.030;5.350;2022-12-29T14:15:38;9.50;99.90
63966;DHT22;50151;52.030;5.350;2022-12-29T14:18:19;9.50;99.90
63966;DHT22;50151;52.030;5.350;2022-12-29T14:20:56;9.40;99.90
63966;DHT22;50151;52.030;5.350;2022-12-29T14:31:01;8.90;99.90
63966;DHT22;50151;52.030;5.350;2022-12-29T14:33:30;8.70;99.90
63966;DHT22;50151;52.030;5.350;2022-12-29T14:36:18;8.70;99.90
63966;DHT22;50151;52.030;5.350;2022-12-29T14:38:47;8.60;99.90
63966;DHT22;50151;52.030;5.350;2022-12-29T14:41:24;8.70;99.90
63966;DHT22;50151;52.030;5.350;2022-12-29T14:43:58;8.70;99.90
63966;DHT22;50151;52.030;5.350;2022-12-29T14:46:44;8.80;99.90
63966;DHT22;50151;52.030;5.350;2022-12-29T14:49:16;8.80;99.90
63966;DHT22;50151;52.030;5.350;2022-12-29T14:51:45;8.90;99.90
63966;DHT22;50151;52.030;5.350;2022-12-29T14:57:03;8.90;99.90
63966;DHT22;50151;52.030;5.350;2022-12-29T14:59:32;8.90;99.90
63966;DHT22;50151;52.030;5.350;2022-12-29T15:02:03;9.00;99.90
63966;DHT22;50151;52.030;5.350;2022-12-29T15:04:33;9.00;99.90
63966;DHT22;50151;52.030;5.350;2022-12-29T15:07:02;9.00;99.90
63966;DHT22;50151;52.030;5.350;2022-12-29T15:09:42;9.00;99.90
63966;DHT22;50151;52.030;5.350;2022-12-29T15:15:01;9.00;99.90
63966;DHT22;50151;52.030;5.350;2022-12-29T15:17:30;9.10;99.90
63966;DHT22;50151;52.030;5.350;2022-12-29T15:20:00;9.10;99.90
63966;DHT22;50151;52.030;5.350;2022-12-29T15:22:27;9.10;99.90
63966;DHT22;50151;52.030;5.350;2022-12-29T15:24:55;9.10;99.90
63966;DHT22;50151;52.030;5.350;2022-12-29T15:27:25;9.10;99.90
63966;DHT22;50151;52.030;5.350;2022-12-29T15:30:01;9.10;99.90
63966;DHT22;50151;52.030;5.350;2022-12-29T15:32:38;9.10;99.90
63966;DHT22;50151;52.030;5.350;2022-12-29T15:35:23;9.10;99.90
63966;DHT22;50151;52.030;5.350;2022-12-29T15:37:50;9.10;99.90
63966;DHT22;50151;52.030;5.350;2022-12-29T15:40:37;9.10;99.90
63966;DHT22;50151;52.030;5.350;2022-12-29T15:46:13;9.10;99.90
63966;DHT22;50151;52.030;5.350;2022-12-29T15:48:40;9.10;99.90
63966;DHT22;50151;52.030;5.350;2022-12-29T15:51:29;9.10;99.90
63966;DHT22;50151;52.030;5.350;2022-12-29T15:53:57;9.10;99.90
63966;DHT22;50151;52.030;5.350;2022-12-29T15:56:24;9.10;99.90
63966;DHT22;50151;52.030;5.350;2022-12-29T15:58:52;9.10;99.90
63966;DHT22;50151;52.030;5.350;2022-12-29T16:01:34;9.10;99.90
63966;DHT22;50151;52.030;5.350;2022-12-29T16:04:09;9.10;99.90
63966;DHT22;50151;52.030;5.350;2022-12-29T16:06:38;9.10;99.90
63966;DHT22;50151;52.030;5.350;2022-12-29T16:09:16;9.10;99.90
63966;DHT22;50151;52.030;5.350;2022-12-29T16:11:51;9.00;99.90
63966;DHT22;50151;52.030;5.350;2022-12-29T16:14:30;9.00;99.90
63966;DHT22;50151;52.030;5.350;2022-12-29T16:17:02;9.00;99.90
63966;DHT22;50151;52.030;5.350;2022-12-29T16:19:36;9.00;99.90
63966;DHT22;50151;52.030;5.350;2022-12-29T16:22:14;9.00;99.90
63966;DHT22;50151;52.030;5.350;2022-12-29T16:24:42;9.00;99.90
63966;DHT22;50151;52.030;5.350;2022-12-29T16:27:21;9.00;99.90
63966;DHT22;50151;52.030;5.350;2022-12-29T16:29:51;8.90;99.90
63966;DHT22;50151;52.030;5.350;2022-12-29T16:32:27;8.90;99.90
63966;DHT22;50151;52.030;5.350;2022-12-29T16:35:28;8.80;99.90
63966;DHT22;50151;52.030;5.350;2022-12-29T16:38:16;8.80;99.90
63966;DHT22;50151;52.030;5.350;2022-12-29T16:43:30;8.70;99.90
63966;DHT22;50151;52.030;5.350;2022-12-29T16:51:32;8.60;99.90
63966;DHT22;50151;52.030;5.350;2022-12-29T16:53:59;8.50;99.90
63966;DHT22;50151;52.030;5.350;2022-12-29T16:56:30;8.50;99.90
63966;DHT22;50151;52.030;5.350;2022-12-29T16:59:52;8.50;99.90
63966;DHT22;50151;52.030;5.350;2022-12-29T17:01:56;8.40;99.90
63966;DHT22;50151;52.030;5.350;2022-12-29T17:04:23;8.40;99.90
63966;DHT22;50151;52.030;5.350;2022-12-29T17:06:50;8.40;99.90
63966;DHT22;50151;52.030;5.350;2022-12-29T17:09:24;8.40;99.90
63966;DHT22;50151;52.030;5.350;2022-12-29T17:11:56;8.40;99.90
63966;DHT22;50151;52.030;5.350;2022-12-29T17:17:05;8.30;99.90
63966;DHT22;50151;52.030;5.350;2022-12-29T17:19:33;8.40;99.90
63966;DHT22;50151;52.030;5.350;2022-12-29T17:22:02;8.40;99.90
63966;DHT22;50151;52.030;5.350;2022-12-29T17:24:29;8.40;99.90
63966;DHT22;50151;52.030;5.350;2022-12-29T17:26:59;8.30;99.90
63966;DHT22;50151;52.030;5.350;2022-12-29T17:29:37;8.40;99.90
63966;DHT22;50151;52.030;5.350;2022-12-29T17:32:06;8.40;99.90
63966;DHT22;50151;52.030;5.350;2022-12-29T17:34:36;8.40;99.90
63966;DHT22;50151;52.030;5.350;2022-12-29T17:37:04;8.40;99.90
63966;DHT22;50151;52.030;5.350;2022-12-29T17:39:34;8.30;99.90
63966;DHT22;50151;52.030;5.350;2022-12-29T17:42:01;8.20;99.90
63966;DHT22;50151;52.030;5.350;2022-12-29T17:44:30;8.30;99.90
63966;DHT22;50151;52.030;5.350;2022-12-29T17:46:56;8.20;99.90
63966;DHT22;50151;52.030;5.350;2022-12-29T17:49:23;8.20;99.90
63966;DHT22;50151;52.030;5.350;2022-12-29T17:51:50;8.20;99.90
63966;DHT22;50151;52.030;5.350;2022-12-29T17:54:22;8.20;99.90
63966;DHT22;50151;52.030;5.350;2022-12-29T17:56:50;8.20;99.90
63966;DHT22;50151;52.030;5.350;2022-12-29T17:59:17;8.10;99.90
63966;DHT22;50151;52.030;5.350;2022-12-29T18:01:45;8.10;99.90
63966;DHT22;50151;52.030;5.350;2022-12-29T18:04:17;8.10;99.90
63966;DHT22;50151;52.030;5.350;2022-12-29T18:06:45;8.10;99.90
63966;DHT22;50151;52.030;5.350;2022-12-29T18:09:12;8.10;99.90
63966;DHT22;50151;52.030;5.350;2022-12-29T18:11:41;8.10;99.90
63966;DHT22;50151;52.030;5.350;2022-12-29T18:14:16;8.10;99.90
63966;DHT22;50151;52.030;5.350;2022-12-29T18:16:43;8.20;99.90
63966;DHT22;50151;52.030;5.350;2022-12-29T18:19:10;8.10;99.90
63966;DHT22;50151;52.030;5.350;2022-12-29T18:21:37;8.10;99.90
63966;DHT22;50151;52.030;5.350;2022-12-29T18:24:05;8.10;99.90
63966;DHT22;50151;52.030;5.350;2022-12-29T18:26:32;8.10;99.90
63966;DHT22;50151;52.030;5.350;2022-12-29T18:29:01;8.00;99.90
63966;DHT22;50151;52.030;5.350;2022-12-29T18:31:30;8.00;99.90
63966;DHT22;50151;52.030;5.350;2022-12-29T18:33:59;7.90;99.90
63966;DHT22;50151;52.030;5.350;2022-12-29T18:36:27;7.90;99.90
63966;DHT22;50151;52.030;5.350;2022-12-29T18:38:54;7.90;99.90
63966;DHT22;50151;52.030;5.350;2022-12-29T18:41:26;7.90;99.90
63966;DHT22;50151;52.030;5.350;2022-12-29T18:43:57;7.90;99.90
63966;DHT22;50151;52.030;5.350;2022-12-29T18:46:24;7.80;99.90
63966;DHT22;50151;52.030;5.350;2022-12-29T18:48:52;7.80;99.90
63966;DHT22;50151;52.030;5.350;2022-12-29T18:51:21;7.80;99.90
63966;DHT22;50151;52.030;5.350;2022-12-29T18:53:49;7.80;99.90
63966;DHT22;50151;52.030;5.350;2022-12-29T18:56:18;7.80;99.90
63966;DHT22;50151;52.030;5.350;2022-12-29T18:58:46;7.80;99.90
63966;DHT22;50151;52.030;5.350;2022-12-29T19:01:22;7.70;99.90
63966;DHT22;50151;52.030;5.350;2022-12-29T19:03:49;7.80;99.90
63966;DHT22;50151;52.030;5.350;2022-12-29T19:06:17;7.80;99.90
63966;DHT22;50151;52.030;5.350;2022-12-29T19:08:44;7.80;99.90
63966;DHT22;50151;52.030;5.350;2022-12-29T19:11:11;7.80;99.90
63966;DHT22;50151;52.030;5.350;2022-12-29T19:13:38;7.80;99.90
63966;DHT22;50151;52.030;5.350;2022-12-29T19:16:07;7.80;99.90
63966;DHT22;50151;52.030;5.350;2022-12-29T19:18:34;7.70;99.90
63966;DHT22;50151;52.030;5.350;2022-12-29T19:21:12;7.80;99.90
63966;DHT22;50151;52.030;5.350;2022-12-29T19:23:38;7.70;99.90
63966;DHT22;50151;52.030;5.350;2022-12-29T19:26:05;7.70;99.90
63966;DHT22;50151;52.030;5.350;2022-12-29T19:28:32;7.70;99.90
63966;DHT22;50151;52.030;5.350;2022-12-29T19:31:00;7.70;99.90
63966;DHT22;50151;52.030;5.350;2022-12-29T19:33:28;7.70;99.90
63966;DHT22;50151;52.030;5.350;2022-12-29T19:35:59;7.70;99.90
63966;DHT22;50151;52.030;5.350;2022-12-29T19:38:27;7.70;99.90
63966;DHT22;50151;52.030;5.350;2022-12-29T19:40:56;7.70;99.90
63966;DHT22;50151;52.030;5.350;2022-12-29T19:43:22;7.80;99.90
63966;DHT22;50151;52.030;5.350;2022-12-29T19:45:49;7.70;99.90
63966;DHT22;50151;52.030;5.350;2022-12-29T19:48:19;7.70;99.90
63966;DHT22;50151;52.030;5.350;2022-12-29T19:50:46;7.70;99.90
63966;DHT22;50151;52.030;5.350;2022-12-29T19:53:13;7.70;99.90
63966;DHT22;50151;52.030;5.350;2022-12-29T19:55:44;7.70;99.90
63966;DHT22;50151;52.030;5.350;2022-12-29T19:58:12;7.70;99.90
63966;DHT22;50151;52.030;5.350;2022-12-29T20:00:39;7.60;99.90
63966;DHT22;50151;52.030;5.350;2022-12-29T20:03:06;7.70;99.90
63966;DHT22;50151;52.030;5.350;2022-12-29T20:05:37;7.70;99.90
63966;DHT22;50151;52.030;5.350;2022-12-29T20:08:04;7.60;99.90
63966;DHT22;50151;52.030;5.350;2022-12-29T20:10:31;7.60;99.90
63966;DHT22;50151;52.030;5.350;2022-12-29T20:12:58;7.60;99.90
63966;DHT22;50151;52.030;5.350;2022-12-29T20:15:24;7.50;99.90
63966;DHT22;50151;52.030;5.350;2022-12-29T20:17:51;7.50;99.90
63966;DHT22;50151;52.030;5.350;2022-12-29T20:20:38;7.50;99.90
63966;DHT22;50151;52.030;5.350;2022-12-29T20:23:04;7.50;99.90
63966;DHT22;50151;52.030;5.350;2022-12-29T20:25:31;7.40;99.90
63966;DHT22;50151;52.030;5.350;2022-12-29T20:28:14;7.50;99.90
63966;DHT22;50151;52.030;5.350;2022-12-29T20:30:42;7.50;99.90
63966;DHT22;50151;52.030;5.350;2022-12-29T20:33:09;7.50;99.90
63966;DHT22;50151;52.030;5.350;2022-12-29T20:35:37;7.50;99.90
63966;DHT22;50151;52.030;5.350;2022-12-29T20:38:04;7.60;99.90
63966;DHT22;50151;52.030;5.350;2022-12-29T20:40:30;7.60;99.90
63966;DHT22;50151;52.030;5.350;2022-12-29T20:42:57;7.60;99.90
63966;DHT22;50151;52.030;5.350;2022-12-29T20:45:24;7.60;99.90
63966;DHT22;50151;52.030;5.350;2022-12-29T20:47:51;7.60;99.90
63966;DHT22;50151;52.030;5.350;2022-12-29T20:50:18;7.60;99.90
63966;DHT22;50151;52.030;5.350;2022-12-29T20:52:45;7.60;99.90
63966;DHT22;50151;52.030;5.350;2022-12-29T20:55:12;7.70;99.90
63966;DHT22;50151;52.030;5.350;2022-12-29T20:57:39;7.60;99.90
63966;DHT22;50151;52.030;5.350;2022-12-29T21:00:26;7.60;99.90
63966;DHT22;50151;52.030;5.350;2022-12-29T21:02:58;7.50;99.90
63966;DHT22;50151;52.030;5.350;2022-12-29T21:05:27;7.60;99.90
63966;DHT22;50151;52.030;5.350;2022-12-29T21:07:54;7.60;99.90
63966;DHT22;50151;52.030;5.350;2022-12-29T21:10:22;7.50;99.90
63966;DHT22;50151;52.030;5.350;2022-12-29T21:12:48;7.50;99.90
63966;DHT22;50151;52.030;5.350;2022-12-29T21:15:15;7.60;99.90
63966;DHT22;50151;52.030;5.350;2022-12-29T21:17:43;7.50;99.90
63966;DHT22;50151;52.030;5.350;2022-12-29T21:20:11;7.50;99.90
63966;DHT22;50151;52.030;5.350;2022-12-29T21:22:55;7.50;99.90
63966;DHT22;50151;52.030;5.350;2022-12-29T21:25:22;7.50;99.90
63966;DHT22;50151;52.030;5.350;2022-12-29T21:27:49;7.40;99.90
63966;DHT22;50151;52.030;5.350;2022-12-29T21:30:16;7.40;99.90
63966;DHT22;50151;52.030;5.350;2022-12-29T21:32:43;7.40;99.90
63966;DHT22;50151;52.030;5.350;2022-12-29T21:35:10;7.40;99.90
63966;DHT22;50151;52.030;5.350;2022-12-29T21:37:36;7.40;99.90
63966;DHT22;50151;52.030;5.350;2022-12-29T21:40:04;7.40;99.90
63966;DHT22;50151;52.030;5.350;2022-12-29T21:42:31;7.40;99.90
63966;DHT22;50151;52.030;5.350;2022-12-29T21:44:57;7.40;99.90
63966;DHT22;50151;52.030;5.350;2022-12-29T21:47:47;7.40;99.90
63966;DHT22;50151;52.030;5.350;2022-12-29T21:50:32;7.40;99.90
63966;DHT22;50151;52.030;5.350;2022-12-29T21:52:59;7.30;99.90
63966;DHT22;50151;52.030;5.350;2022-12-29T21:55:25;7.30;99.90
63966;DHT22;50151;52.030;5.350;2022-12-29T21:57:52;7.30;99.90
63966;DHT22;50151;52.030;5.350;2022-12-29T22:00:37;7.20;99.90
63966;DHT22;50151;52.030;5.350;2022-12-29T22:03:23;7.20;99.90
63966;DHT22;50151;52.030;5.350;2022-12-29T22:06:11;7.20;99.90
63966;DHT22;50151;52.030;5.350;2022-12-29T22:08:57;7.20;99.90
63966;DHT22;50151;52.030;5.350;2022-12-29T22:11:42;7.20;99.90
63966;DHT22;50151;52.030;5.350;2022-12-29T22:14:27;7.20;99.90
63966;DHT22;50151;52.030;5.350;2022-12-29T22:16:54;7.20;99.90
63966;DHT22;50151;52.030;5.350;2022-12-29T22:19:20;7.10;99.90
63966;DHT22;50151;52.030;5.350;2022-12-29T22:21:47;7.10;99.90
63966;DHT22;50151;52.030;5.350;2022-12-29T22:24:14;7.10;99.90
63966;DHT22;50151;52.030;5.350;2022-12-29T22:26:40;7.10;99.90
63966;DHT22;50151;52.030;5.350;2022-12-29T22:29:07;7.10;99.90
63966;DHT22;50151;52.030;5.350;2022-12-29T22:31:34;7.10;99.90
63966;DHT22;50151;52.030;5.350;2022-12-29T22:34:02;7.00;99.90
63966;DHT22;50151;52.030;5.350;2022-12-29T22:36:30;7.10;99.90
63966;DHT22;50151;52.030;5.350;2022-12-29T22:38:57;7.00;99.90
63966;DHT22;50151;52.030;5.350;2022-12-29T22:41:24;7.10;99.90
63966;DHT22;50151;52.030;5.350;2022-12-29T22:43:51;7.10;99.90
63966;DHT22;50151;52.030;5.350;2022-12-29T22:46:17;7.20;99.90
63966;DHT22;50151;52.030;5.350;2022-12-29T22:48:44;7.10;99.90
63966;DHT22;50151;52.030;5.350;2022-12-29T22:51:11;7.10;99.90
63966;DHT22;50151;52.030;5.350;2022-12-29T22:53:39;7.20;99.90
63966;DHT22;50151;52.030;5.350;2022-12-29T22:56:11;7.10;99.90
63966;DHT22;50151;52.030;5.350;2022-12-29T22:58:40;7.10;99.90
63966;DHT22;50151;52.030;5.350;2022-12-29T23:01:07;7.10;99.90
63966;DHT22;50151;52.030;5.350;2022-12-29T23:03:34;7.10;99.90
63966;DHT22;50151;52.030;5.350;2022-12-29T23:06:03;7.10;99.90
63966;DHT22;50151;52.030;5.350;2022-12-29T23:08:35;7.00;99.90
63966;DHT22;50151;52.030;5.350;2022-12-29T23:11:03;7.10;99.90
63966;DHT22;50151;52.030;5.350;2022-12-29T23:13:31;7.00;99.90
63966;DHT22;50151;52.030;5.350;2022-12-29T23:15:58;7.00;99.90
63966;DHT22;50151;52.030;5.350;2022-12-29T23:18:25;7.00;99.90
